createdAt,value
2017-07-26T00:01:46.185Z,17.50
2017-07-26T00:04:12.153Z,17.40
2017-07-26T00:06:38.113Z,17.30
2017-07-26T00:09:11.534Z,17.30
2017-07-26T00:11:37.489Z,17.50
2017-07-26T00:14:03.451Z,17.60
2017-07-26T00:16:29.438Z,17.60
2017-07-26T00:18:55.391Z,17.60
2017-07-26T00:21:21.318Z,17.50
2017-07-26T00:23:47.322Z,17.40
2017-07-26T00:26:13.347Z,17.40
2017-07-26T00:28:39.295Z,17.20
2017-07-26T00:31:05.253Z,17.40
2017-07-26T00:33:31.943Z,17.30
2017-07-26T00:35:57.941Z,17.30
2017-07-26T00:38:23.886Z,17.30
2017-07-26T00:40:49.826Z,17.30
2017-07-26T00:43:15.777Z,17.40
2017-07-26T00:45:41.726Z,17.40
2017-07-26T00:48:07.673Z,17.40
2017-07-26T00:50:34.362Z,17.30
2017-07-26T00:53:00.390Z,17.30
2017-07-26T00:55:26.372Z,17.30
2017-07-26T00:57:53.044Z,17.00
2017-07-26T01:00:18.999Z,17.00
2017-07-26T01:02:44.939Z,16.90
2017-07-26T01:05:10.881Z,17.00
2017-07-26T01:07:36.861Z,16.90
2017-07-26T01:10:02.880Z,17.10
2017-07-26T01:12:28.830Z,17.10
2017-07-26T01:14:54.751Z,17.30
2017-07-26T01:17:20.726Z,17.40
2017-07-26T01:19:46.693Z,17.50
2017-07-26T01:22:39.586Z,17.30
2017-07-26T01:25:05.545Z,17.30
2017-07-26T01:27:32.229Z,17.10
2017-07-26T01:29:58.172Z,17.10
2017-07-26T01:32:24.134Z,17.00
2017-07-26T01:34:50.184Z,17.10
2017-07-26T01:37:16.127Z,17.10
2017-07-26T01:39:42.086Z,17.00
2017-07-26T01:42:08.025Z,17.20
2017-07-26T01:44:34.025Z,17.10
2017-07-26T01:47:00.002Z,17.00
2017-07-26T01:49:26.009Z,17.00
2017-07-26T01:51:52.018Z,17.10
2017-07-26T01:54:17.982Z,17.10
2017-07-26T01:56:43.924Z,17.30
2017-07-26T01:59:09.901Z,17.30
2017-07-26T02:01:35.841Z,17.30
2017-07-26T02:04:01.822Z,17.20
2017-07-26T02:06:27.774Z,17.20
2017-07-26T02:08:53.741Z,17.30
2017-07-26T02:11:19.732Z,17.30
2017-07-26T02:13:45.689Z,17.20
2017-07-26T02:16:11.633Z,17.20
2017-07-26T02:18:38.371Z,17.20
2017-07-26T02:21:04.422Z,17.20
2017-07-26T02:23:30.417Z,17.20
2017-07-26T02:25:56.361Z,17.30
2017-07-26T02:28:22.398Z,17.30
2017-07-26T02:30:48.356Z,17.20
2017-07-26T02:33:14.301Z,17.10
2017-07-26T02:35:40.246Z,17.10
2017-07-26T02:38:06.187Z,17.10
2017-07-26T02:40:32.133Z,17.10
2017-07-26T02:42:58.093Z,17.30
2017-07-26T02:45:24.049Z,17.30
2017-07-26T02:47:50.011Z,17.30
2017-07-26T02:50:15.965Z,17.20
2017-07-26T02:52:41.936Z,17.20
2017-07-26T02:55:07.902Z,17.10
2017-07-26T02:57:33.855Z,17.10
2017-07-26T02:59:59.849Z,17.30
2017-07-26T03:02:25.797Z,17.40
2017-07-26T03:04:52.491Z,17.10
2017-07-26T03:07:18.445Z,17.10
2017-07-26T03:09:44.403Z,17.10
2017-07-26T03:12:11.093Z,17.20
2017-07-26T03:14:37.037Z,17.20
2017-07-26T03:17:02.992Z,17.40
2017-07-26T03:19:28.982Z,17.60
2017-07-26T03:21:54.945Z,17.60
2017-07-26T03:24:21.657Z,17.50
2017-07-26T03:26:47.622Z,17.40
2017-07-26T03:29:14.306Z,17.30
2017-07-26T03:31:40.318Z,17.30
2017-07-26T03:34:06.404Z,17.30
2017-07-26T03:36:32.432Z,17.60
2017-07-26T03:38:58.425Z,17.80
2017-07-26T03:41:24.398Z,17.80
2017-07-26T03:43:50.358Z,17.80
2017-07-26T03:46:17.063Z,17.80
2017-07-26T03:48:43.070Z,17.80
2017-07-26T03:51:09.027Z,17.60
2017-07-26T03:53:34.981Z,17.50
2017-07-26T03:56:01.693Z,17.60
2017-07-26T03:58:27.688Z,17.60
2017-07-26T04:00:53.612Z,17.50
2017-07-26T04:03:19.618Z,17.40
2017-07-26T04:05:45.556Z,17.20
2017-07-26T04:08:11.525Z,17.10
2017-07-26T04:10:37.478Z,17.40
2017-07-26T04:13:04.213Z,17.10
2017-07-26T04:15:30.153Z,17.00
2017-07-26T04:17:56.846Z,17.30
2017-07-26T04:20:22.837Z,17.20
2017-07-26T04:22:49.514Z,17.10
2017-07-26T04:25:15.491Z,17.10
2017-07-26T04:27:41.451Z,17.30
2017-07-26T04:30:07.461Z,17.40
2017-07-26T04:32:33.409Z,17.50
2017-07-26T04:34:59.377Z,17.80
2017-07-26T04:37:25.340Z,17.60
2017-07-26T04:39:51.302Z,17.60
2017-07-26T04:42:17.262Z,17.80
2017-07-26T04:44:43.244Z,17.80
2017-07-26T04:47:09.201Z,17.70
2017-07-26T04:49:35.162Z,17.80
2017-07-26T04:52:01.099Z,17.90
2017-07-26T04:54:27.086Z,17.80
2017-07-26T04:56:53.017Z,17.80
2017-07-26T04:59:18.945Z,17.80
2017-07-26T05:01:44.895Z,17.70
2017-07-26T05:04:10.850Z,17.70
2017-07-26T05:06:37.557Z,17.80
2017-07-26T05:09:03.528Z,17.80
2017-07-26T05:11:30.200Z,17.70
2017-07-26T05:13:56.157Z,17.70
2017-07-26T05:16:22.102Z,17.90
2017-07-26T05:18:48.013Z,17.90
2017-07-26T05:21:13.973Z,17.90
2017-07-26T05:23:40.664Z,17.80
2017-07-26T05:26:12.709Z,17.80
2017-07-26T05:28:38.678Z,17.90
2017-07-26T05:31:04.716Z,17.90
2017-07-26T05:33:30.656Z,18.10
2017-07-26T05:35:56.594Z,17.80
2017-07-26T05:38:23.281Z,17.80
2017-07-26T05:40:49.230Z,17.70
2017-07-26T05:43:15.165Z,17.70
2017-07-26T05:45:41.103Z,17.80
2017-07-26T05:48:07.049Z,17.80
2017-07-26T05:50:33.775Z,18.30
2017-07-26T05:53:00.537Z,18.30
2017-07-26T05:55:26.469Z,18.40
2017-07-26T05:57:53.174Z,18.20
2017-07-26T06:00:19.178Z,18.20
2017-07-26T06:02:45.113Z,18.40
2017-07-26T06:05:11.061Z,18.40
2017-07-26T06:07:37.037Z,18.30
2017-07-26T06:10:03.735Z,18.00
2017-07-26T06:12:29.688Z,18.00
2017-07-26T06:14:56.386Z,18.00
2017-07-26T06:17:22.335Z,18.00
2017-07-26T06:19:48.314Z,17.90
2017-07-26T06:22:14.230Z,17.80
2017-07-26T06:24:40.930Z,17.90
2017-07-26T06:27:06.908Z,17.90
2017-07-26T06:29:32.862Z,17.90
2017-07-26T06:31:58.809Z,17.80
2017-07-26T06:34:24.756Z,17.90
2017-07-26T06:36:50.722Z,17.90
2017-07-26T06:39:16.685Z,17.90
2017-07-26T06:41:42.652Z,18.00
2017-07-26T06:44:08.617Z,18.00
2017-07-26T06:46:34.570Z,18.10
2017-07-26T06:49:00.489Z,18.00
2017-07-26T06:51:26.494Z,18.30
2017-07-26T06:53:52.407Z,18.50
2017-07-26T06:56:19.157Z,18.30
2017-07-26T06:58:45.181Z,18.30
2017-07-26T07:01:11.116Z,18.30
2017-07-26T07:03:37.766Z,18.20
2017-07-26T07:06:04.450Z,18.40
2017-07-26T07:08:30.434Z,18.40
2017-07-26T07:10:56.381Z,18.20
2017-07-26T07:13:22.339Z,18.40
2017-07-26T07:15:48.301Z,18.70
2017-07-26T07:18:15.009Z,18.80
2017-07-26T07:20:40.974Z,18.80
2017-07-26T07:23:06.892Z,18.50
2017-07-26T07:25:33.592Z,18.20
2017-07-26T07:27:59.568Z,18.20
2017-07-26T07:30:25.533Z,18.00
2017-07-26T07:32:51.469Z,18.00
2017-07-26T07:35:17.398Z,18.30
2017-07-26T07:37:43.338Z,18.10
2017-07-26T07:40:09.258Z,17.90
2017-07-26T07:42:35.212Z,18.00
2017-07-26T07:45:01.150Z,18.00
2017-07-26T07:47:27.121Z,18.00
2017-07-26T07:49:53.049Z,17.90
2017-07-26T07:52:19.000Z,17.90
2017-07-26T07:54:44.958Z,18.00
2017-07-26T07:57:10.916Z,18.00
2017-07-26T07:59:36.859Z,18.10
2017-07-26T08:02:02.842Z,18.10
2017-07-26T08:04:28.785Z,18.20
2017-07-26T08:06:55.458Z,18.00
2017-07-26T08:09:22.493Z,18.00
2017-07-26T08:11:52.722Z,18.00
2017-07-26T08:14:19.385Z,18.10
2017-07-26T08:16:45.338Z,18.10
2017-07-26T08:19:11.279Z,18.30
2017-07-26T08:21:41.858Z,18.40
2017-07-26T08:24:07.978Z,18.40
2017-07-26T08:26:35.151Z,18.70
2017-07-26T08:29:01.081Z,18.60
2017-07-26T08:31:27.030Z,18.60
2017-07-26T08:33:53.169Z,18.60
2017-07-26T08:36:19.101Z,18.60
2017-07-26T08:38:45.054Z,18.70
2017-07-26T08:41:11.778Z,18.80
2017-07-26T08:43:37.745Z,18.80
2017-07-26T08:46:03.662Z,18.70
2017-07-26T08:48:29.595Z,18.70
2017-07-26T08:50:59.566Z,18.80
2017-07-26T08:53:25.646Z,18.80
2017-07-26T08:55:53.429Z,18.80
2017-07-26T08:58:20.110Z,18.80
2017-07-26T09:00:46.047Z,18.80
2017-07-26T09:03:12.055Z,18.70
2017-07-26T09:05:37.999Z,18.90
2017-07-26T09:08:03.926Z,19.10
2017-07-26T09:10:29.900Z,19.20
2017-07-26T09:12:56.610Z,19.10
2017-07-26T09:15:22.583Z,19.00
2017-07-26T09:17:53.001Z,19.30
2017-07-26T09:20:19.694Z,19.30
2017-07-26T09:22:45.657Z,19.30
2017-07-26T09:25:15.916Z,19.10
2017-07-26T09:27:42.980Z,19.00
2017-07-26T09:30:08.934Z,19.00
2017-07-26T09:32:34.932Z,19.00
2017-07-26T09:35:00.918Z,19.00
2017-07-26T09:37:27.389Z,19.00
2017-07-26T09:39:54.061Z,19.20
2017-07-26T09:42:20.021Z,19.20
2017-07-26T09:44:47.011Z,19.40
2017-07-26T09:47:12.953Z,19.60
2017-07-26T09:49:47.018Z,19.90
2017-07-26T09:52:12.966Z,19.90
2017-07-26T09:54:39.697Z,19.50
2017-07-26T09:57:09.195Z,19.50
2017-07-26T09:59:35.153Z,19.40
2017-07-26T10:02:01.849Z,19.80
2017-07-26T10:04:27.839Z,19.80
2017-07-26T10:06:53.803Z,19.60
2017-07-26T10:09:19.740Z,19.70
2017-07-26T10:11:45.682Z,20.00
2017-07-26T10:14:11.616Z,20.20
2017-07-26T10:16:37.745Z,20.20
2017-07-26T10:19:05.742Z,20.10
2017-07-26T10:21:36.077Z,20.40
2017-07-26T10:24:05.430Z,20.50
2017-07-26T10:26:31.436Z,20.80
2017-07-26T10:28:59.500Z,20.80
2017-07-26T10:31:30.381Z,20.90
2017-07-26T10:33:57.373Z,20.80
2017-07-26T10:36:25.153Z,20.60
2017-07-26T10:38:53.830Z,20.90
2017-07-26T10:41:21.813Z,20.90
2017-07-26T10:43:48.566Z,21.10
2017-07-26T10:46:15.603Z,21.10
2017-07-26T10:48:43.396Z,21.80
2017-07-26T10:51:10.475Z,21.80
2017-07-26T10:53:36.455Z,22.10
2017-07-26T10:56:03.543Z,22.30
2017-07-26T10:58:29.556Z,22.60
2017-07-26T11:00:55.568Z,22.50
2017-07-26T11:03:24.353Z,22.70
2017-07-26T11:05:52.157Z,22.90
2017-07-26T11:08:20.238Z,22.90
2017-07-26T11:10:46.251Z,23.10
2017-07-26T11:13:13.000Z,23.30
2017-07-26T11:15:38.985Z,23.30
2017-07-26T11:18:04.961Z,23.40
2017-07-26T11:20:30.909Z,23.70
2017-07-26T11:22:57.913Z,23.70
2017-07-26T11:25:29.676Z,24.00
2017-07-26T11:28:01.840Z,24.30
2017-07-26T11:30:28.615Z,24.60
2017-07-26T11:32:58.312Z,24.50
2017-07-26T11:35:28.635Z,25.10
2017-07-26T11:37:55.385Z,25.30
2017-07-26T11:40:37.221Z,25.40
2017-07-26T11:43:03.221Z,25.40
2017-07-26T11:45:34.066Z,25.60
2017-07-26T11:48:01.107Z,25.60
2017-07-26T11:50:30.503Z,25.60
2017-07-26T11:52:57.186Z,26.20
2017-07-26T11:55:23.195Z,26.30
2017-07-26T11:57:52.487Z,26.50
2017-07-26T12:00:18.510Z,26.70
2017-07-26T12:02:49.061Z,26.70
2017-07-26T12:05:15.134Z,26.30
2017-07-26T12:07:46.789Z,26.20
2017-07-26T12:10:18.002Z,26.00
2017-07-26T12:12:45.050Z,25.90
2017-07-26T12:15:13.098Z,25.60
2017-07-26T12:17:39.812Z,25.90
2017-07-26T12:20:05.794Z,25.80
2017-07-26T12:22:31.824Z,26.00
2017-07-26T12:25:01.725Z,25.80
2017-07-26T12:27:34.048Z,26.20
2017-07-26T12:30:10.377Z,26.20
2017-07-26T12:32:37.509Z,26.00
2017-07-26T12:35:11.885Z,25.60
2017-07-26T12:37:38.919Z,25.50
2017-07-26T12:40:06.984Z,25.20
2017-07-26T12:42:32.933Z,25.00
2017-07-26T12:45:09.228Z,24.90
2017-07-26T12:47:38.565Z,25.30
2017-07-26T12:50:16.701Z,25.70
2017-07-26T12:52:48.976Z,25.90
2017-07-26T12:55:15.991Z,26.00
2017-07-26T12:57:42.737Z,26.20
2017-07-26T13:00:10.510Z,26.00
2017-07-26T13:02:36.461Z,25.90
2017-07-26T13:05:03.503Z,25.90
2017-07-26T13:07:31.623Z,25.80
2017-07-26T13:10:04.091Z,25.90
2017-07-26T13:12:50.623Z,26.50
2017-07-26T13:15:17.606Z,27.10
2017-07-26T13:17:43.550Z,27.80
2017-07-26T13:20:09.560Z,28.30
2017-07-26T13:22:35.493Z,28.60
2017-07-26T13:25:01.478Z,28.70
2017-07-26T13:27:27.550Z,29.00
2017-07-26T13:29:53.618Z,29.10
2017-07-26T13:32:23.186Z,29.20
2017-07-26T13:34:49.221Z,29.20
2017-07-26T13:37:16.282Z,28.90
2017-07-26T13:39:46.264Z,28.50
2017-07-26T13:42:16.771Z,27.90
2017-07-26T13:44:44.821Z,27.80
2017-07-26T13:47:14.403Z,27.70
2017-07-26T13:49:40.424Z,27.40
2017-07-26T13:52:07.454Z,27.50
2017-07-26T13:54:39.332Z,27.70
2017-07-26T13:57:08.622Z,27.60
2017-07-26T13:59:41.742Z,27.60
2017-07-26T14:02:12.174Z,27.70
2017-07-26T14:04:53.361Z,28.10
2017-07-26T14:07:22.941Z,28.30
2017-07-26T14:09:51.704Z,28.60
2017-07-26T14:12:19.722Z,28.50
2017-07-26T14:14:48.806Z,28.40
2017-07-26T14:17:19.125Z,28.20
2017-07-26T14:19:45.152Z,28.20
2017-07-26T14:22:22.718Z,27.80
2017-07-26T14:24:52.175Z,27.80
2017-07-26T14:27:18.930Z,27.40
2017-07-26T14:29:46.894Z,27.40
2017-07-26T14:32:12.917Z,27.40
2017-07-26T14:34:40.921Z,27.80
2017-07-26T14:37:06.909Z,28.00
2017-07-26T14:39:33.878Z,28.20
2017-07-26T14:42:01.954Z,28.60
2017-07-26T14:44:28.679Z,28.80
2017-07-26T14:46:56.563Z,29.00
2017-07-26T14:49:29.368Z,29.30
2017-07-26T14:52:01.529Z,29.20
2017-07-26T14:54:31.846Z,29.50
2017-07-26T14:56:57.862Z,29.70
2017-07-26T14:59:25.833Z,29.80
2017-07-26T15:01:58.870Z,29.80
2017-07-26T15:04:24.897Z,29.80
2017-07-26T15:06:57.384Z,29.50
2017-07-26T15:09:24.429Z,29.40
2017-07-26T15:11:55.129Z,29.50
2017-07-26T15:14:34.476Z,29.00
2017-07-26T15:17:03.902Z,29.00
2017-07-26T15:19:30.901Z,29.10
2017-07-26T15:21:59.594Z,29.50
2017-07-26T15:24:26.365Z,29.40
2017-07-26T15:26:57.190Z,29.40
2017-07-26T15:29:23.124Z,29.20
2017-07-26T15:31:52.952Z,29.00
2017-07-26T15:34:19.981Z,29.00
2017-07-26T15:36:48.674Z,29.60
2017-07-26T15:39:15.440Z,29.60
2017-07-26T15:41:41.458Z,29.60
2017-07-26T15:44:09.430Z,29.60
2017-07-26T15:46:37.196Z,29.70
2017-07-26T15:49:05.974Z,29.80
2017-07-26T15:51:33.961Z,29.80
2017-07-26T15:54:01.744Z,29.90
2017-07-26T15:56:30.925Z,29.90
2017-07-26T15:58:57.609Z,29.70
2017-07-26T16:01:24.629Z,29.70
2017-07-26T16:03:51.833Z,29.50
2017-07-26T16:06:21.251Z,29.60
2017-07-26T16:08:47.250Z,29.70
2017-07-26T16:11:13.182Z,29.60
2017-07-26T16:13:39.169Z,28.80
2017-07-26T16:16:09.493Z,28.60
2017-07-26T16:18:40.849Z,28.90
2017-07-26T16:21:11.292Z,28.90
2017-07-26T16:23:37.343Z,28.90
2017-07-26T16:26:06.944Z,28.80
2017-07-26T16:28:55.134Z,28.70
2017-07-26T16:31:21.253Z,28.80
2017-07-26T16:33:55.116Z,28.90
2017-07-26T16:36:42.484Z,28.60
2017-07-26T16:39:13.078Z,28.10
2017-07-26T16:41:44.285Z,27.60
2017-07-26T16:44:28.794Z,27.10
2017-07-26T16:46:54.797Z,27.10
2017-07-26T16:49:24.597Z,27.10
2017-07-26T16:54:58.337Z,27.30
2017-07-26T16:57:37.702Z,27.30
2017-07-26T17:00:21.313Z,27.40
2017-07-26T17:02:52.834Z,27.40
2017-07-26T17:05:18.878Z,27.50
2017-07-26T17:07:55.422Z,27.70
2017-07-26T17:10:35.845Z,27.30
2017-07-26T17:13:05.379Z,27.30
2017-07-26T17:15:32.178Z,27.90
2017-07-26T17:17:58.131Z,27.80
2017-07-26T17:20:34.341Z,27.90
2017-07-26T17:23:21.807Z,28.10
2017-07-26T17:25:47.882Z,28.10
2017-07-26T17:28:21.591Z,27.80
2017-07-26T17:30:53.978Z,27.50
2017-07-26T17:36:37.960Z,27.50
2017-07-26T17:39:11.494Z,27.50
2017-07-26T17:41:46.028Z,27.50
2017-07-26T17:44:29.379Z,27.50
2017-07-26T17:46:57.421Z,27.50
2017-07-26T17:49:27.213Z,27.30
2017-07-26T17:51:53.247Z,26.60
2017-07-26T17:54:19.934Z,26.20
2017-07-26T17:56:47.976Z,26.10
2017-07-26T17:59:14.733Z,25.80
2017-07-26T18:01:47.526Z,25.80
2017-07-26T18:04:32.946Z,25.60
2017-07-26T18:07:13.481Z,25.30
2017-07-26T18:09:49.945Z,25.10
2017-07-26T18:12:23.221Z,24.90
2017-07-26T18:14:55.445Z,25.00
2017-07-26T18:17:45.714Z,25.00
2017-07-26T18:20:19.281Z,25.00
2017-07-26T18:22:53.709Z,25.00
2017-07-26T18:25:26.980Z,24.90
2017-07-26T18:27:54.021Z,25.00
2017-07-26T18:30:30.710Z,25.00
2017-07-26T18:33:10.066Z,25.00
2017-07-26T18:35:41.573Z,25.00
2017-07-26T18:38:11.901Z,24.90
2017-07-26T18:40:39.676Z,24.90
2017-07-26T18:43:06.789Z,24.80
2017-07-26T18:45:46.919Z,24.70
2017-07-26T18:48:25.439Z,24.80
2017-07-26T18:53:45.589Z,24.80
2017-07-26T18:56:11.609Z,24.60
2017-07-26T18:58:37.666Z,24.40
2017-07-26T19:01:12.412Z,24.30
2017-07-26T19:03:45.701Z,24.20
2017-07-26T19:06:22.194Z,24.20
2017-07-26T19:08:59.579Z,24.30
2017-07-26T19:11:33.885Z,24.20
2017-07-26T19:13:59.842Z,24.20
2017-07-26T19:16:25.896Z,24.10
2017-07-26T19:18:55.862Z,23.90
2017-07-26T19:21:25.025Z,23.80
2017-07-26T19:24:04.279Z,23.80
2017-07-26T19:26:40.639Z,23.80
2017-07-26T19:29:17.043Z,23.70
2017-07-26T19:31:53.489Z,23.50
2017-07-26T19:34:26.901Z,23.30
2017-07-26T19:37:18.252Z,23.20
2017-07-26T19:39:53.838Z,23.20
2017-07-26T19:42:34.321Z,23.10
2017-07-26T19:45:06.822Z,23.20
2017-07-26T19:47:33.874Z,23.10
2017-07-26T19:49:59.966Z,23.10
2017-07-26T19:52:28.045Z,23.00
2017-07-26T19:55:14.898Z,23.00
2017-07-26T19:57:40.977Z,22.80
2017-07-26T20:00:17.878Z,22.70
2017-07-26T20:02:54.206Z,22.50
2017-07-26T20:05:26.594Z,22.40
2017-07-26T20:08:03.047Z,22.40
2017-07-26T20:10:32.366Z,22.30
2017-07-26T20:13:04.641Z,22.20
2017-07-26T20:15:44.115Z,22.00
2017-07-26T20:18:18.495Z,22.00
2017-07-26T20:20:50.851Z,22.00
2017-07-26T20:25:50.247Z,21.90
2017-07-26T20:28:34.753Z,21.90
2017-07-26T20:31:01.766Z,21.90
2017-07-26T20:33:41.539Z,21.70
2017-07-26T20:36:07.659Z,21.70
2017-07-26T20:38:40.241Z,21.60
2017-07-26T20:41:07.605Z,21.60
2017-07-26T20:43:33.546Z,21.60
2017-07-26T20:46:03.199Z,21.60
2017-07-26T20:48:29.322Z,21.60
2017-07-26T20:50:55.400Z,21.60
2017-07-26T20:53:26.138Z,21.60
2017-07-26T20:56:04.436Z,21.50
2017-07-26T20:58:30.392Z,21.40
2017-07-26T21:01:10.151Z,21.20
2017-07-26T21:03:46.566Z,21.10
2017-07-26T21:06:21.078Z,21.00
2017-07-26T21:08:51.413Z,21.10
2017-07-26T21:11:24.956Z,21.00
2017-07-26T21:13:55.316Z,21.10
2017-07-26T21:16:22.342Z,21.10
2017-07-26T21:18:48.691Z,21.00
2017-07-26T21:21:16.277Z,21.00
2017-07-26T21:23:43.583Z,20.70
2017-07-26T21:26:09.851Z,20.80
2017-07-26T21:28:39.314Z,20.90
2017-07-26T21:31:08.378Z,20.90
2017-07-26T21:33:35.073Z,21.00
2017-07-26T21:36:01.060Z,21.00
2017-07-26T21:38:40.264Z,20.90
2017-07-26T21:41:12.693Z,20.90
2017-07-26T21:43:39.446Z,20.80
2017-07-26T21:46:06.618Z,20.70
2017-07-26T21:48:32.589Z,20.40
2017-07-26T21:51:01.007Z,20.40
2017-07-26T21:53:28.041Z,20.30
2017-07-26T21:56:01.451Z,20.40
2017-07-26T21:58:47.929Z,20.30
2017-07-26T22:01:18.090Z,20.30
2017-07-26T22:03:44.820Z,20.30
2017-07-26T22:06:25.232Z,20.20
2017-07-26T22:08:51.202Z,20.10
2017-07-26T22:11:17.181Z,20.10
2017-07-26T22:13:43.203Z,19.90
2017-07-26T22:16:09.159Z,19.60
2017-07-26T22:18:35.098Z,19.70
2017-07-26T22:21:01.791Z,19.60
2017-07-26T22:23:27.782Z,19.60
2017-07-26T22:25:53.808Z,19.50
2017-07-26T22:28:20.510Z,19.80
2017-07-26T22:30:46.466Z,19.70
2017-07-26T22:33:13.203Z,19.80
2017-07-26T22:35:39.942Z,19.70
2017-07-26T22:38:05.886Z,19.70
2017-07-26T22:40:32.577Z,19.70
2017-07-26T22:42:58.529Z,19.70
2017-07-26T22:45:24.479Z,19.70
2017-07-26T22:47:51.170Z,19.80
2017-07-26T22:50:17.138Z,19.80
2017-07-26T22:52:43.110Z,19.40
2017-07-26T22:55:09.091Z,19.20
2017-07-26T22:57:35.037Z,18.70
2017-07-26T23:00:08.909Z,18.80
2017-07-26T23:02:34.834Z,18.80
2017-07-26T23:05:00.785Z,19.00
2017-07-26T23:07:26.727Z,19.10
2017-07-26T23:09:52.661Z,19.20
2017-07-26T23:12:19.347Z,19.40
2017-07-26T23:14:45.297Z,19.40
2017-07-26T23:17:11.253Z,19.50
2017-07-26T23:19:37.174Z,19.50
2017-07-26T23:22:03.877Z,19.60
2017-07-26T23:24:29.807Z,19.50
2017-07-26T23:26:55.744Z,19.50
2017-07-26T23:29:21.681Z,19.50
2017-07-26T23:31:47.618Z,19.40
2017-07-26T23:34:13.610Z,19.40
2017-07-26T23:36:39.609Z,19.40
2017-07-26T23:39:06.273Z,19.30
2017-07-26T23:41:32.233Z,19.30
2017-07-26T23:43:58.230Z,19.30
2017-07-26T23:46:24.214Z,19.20
2017-07-26T23:48:50.129Z,19.10
2017-07-26T23:51:16.093Z,19.00
2017-07-26T23:53:42.063Z,18.70
2017-07-26T23:56:08.058Z,18.80
2017-07-26T23:58:34.019Z,18.80
